sensor_id;sensor_type;location;lat;lon;timestamp;P1;durP1;ratioP1;P2;durP2;ratioP2
11064;SDS011;5585;52.530;7.320;2022-07-06T00:01:08;2.75;;;1.33;;
11064;SDS011;5585;52.530;7.320;2022-07-06T00:03:34;2.08;;;1.40;;
11064;SDS011;5585;52.530;7.320;2022-07-06T00:06:01;2.35;;;1.40;;
11064;SDS011;5585;52.530;7.320;2022-07-06T00:08:27;2.08;;;1.70;;
11064;SDS011;5585;52.530;7.320;2022-07-06T00:10:55;2.17;;;1.50;;
11064;SDS011;5585;52.530;7.320;2022-07-06T00:13:22;1.55;;;1.40;;
11064;SDS011;5585;52.530;7.320;2022-07-06T00:15:48;2.10;;;1.55;;
11064;SDS011;5585;52.530;7.320;2022-07-06T00:18:15;3.20;;;1.60;;
11064;SDS011;5585;52.530;7.320;2022-07-06T00:20:41;2.03;;;1.38;;
11064;SDS011;5585;52.530;7.320;2022-07-06T00:23:08;2.28;;;1.60;;
11064;SDS011;5585;52.530;7.320;2022-07-06T00:25:34;2.85;;;2.10;;
11064;SDS011;5585;52.530;7.320;2022-07-06T00:28:02;2.72;;;1.73;;
11064;SDS011;5585;52.530;7.320;2022-07-06T00:30:28;2.63;;;1.50;;
11064;SDS011;5585;52.530;7.320;2022-07-06T00:32:55;1.58;;;1.20;;
11064;SDS011;5585;52.530;7.320;2022-07-06T00:35:23;1.58;;;1.23;;
11064;SDS011;5585;52.530;7.320;2022-07-06T00:37:50;1.63;;;1.30;;
11064;SDS011;5585;52.530;7.320;2022-07-06T00:40:16;2.80;;;1.50;;
11064;SDS011;5585;52.530;7.320;2022-07-06T00:42:47;2.47;;;1.70;;
11064;SDS011;5585;52.530;7.320;2022-07-06T00:45:16;3.63;;;1.50;;
11064;SDS011;5585;52.530;7.320;2022-07-06T00:47:43;1.55;;;1.40;;
11064;SDS011;5585;52.530;7.320;2022-07-06T00:50:10;2.70;;;1.42;;
11064;SDS011;5585;52.530;7.320;2022-07-06T00:52:40;2.85;;;1.60;;
11064;SDS011;5585;52.530;7.320;2022-07-06T00:55:07;1.80;;;1.35;;
11064;SDS011;5585;52.530;7.320;2022-07-06T00:57:34;2.08;;;1.52;;
11064;SDS011;5585;52.530;7.320;2022-07-06T01:00:00;2.15;;;1.52;;
11064;SDS011;5585;52.530;7.320;2022-07-06T01:02:31;2.67;;;1.40;;
11064;SDS011;5585;52.530;7.320;2022-07-06T01:04:57;2.15;;;1.40;;
11064;SDS011;5585;52.530;7.320;2022-07-06T01:07:24;3.15;;;1.70;;
11064;SDS011;5585;52.530;7.320;2022-07-06T01:09:50;2.17;;;1.15;;
11064;SDS011;5585;52.530;7.320;2022-07-06T01:12:17;2.47;;;1.73;;
11064;SDS011;5585;52.530;7.320;2022-07-06T01:14:43;2.67;;;1.65;;
11064;SDS011;5585;52.530;7.320;2022-07-06T01:17:11;1.60;;;1.50;;
11064;SDS011;5585;52.530;7.320;2022-07-06T01:19:40;2.25;;;1.48;;
11064;SDS011;5585;52.530;7.320;2022-07-06T01:22:09;1.83;;;1.50;;
11064;SDS011;5585;52.530;7.320;2022-07-06T01:24:35;1.98;;;1.23;;
11064;SDS011;5585;52.530;7.320;2022-07-06T01:27:02;3.70;;;1.85;;
11064;SDS011;5585;52.530;7.320;2022-07-06T01:29:29;2.50;;;1.60;;
11064;SDS011;5585;52.530;7.320;2022-07-06T01:31:56;1.67;;;1.58;;
11064;SDS011;5585;52.530;7.320;2022-07-06T01:34:23;2.28;;;1.75;;
11064;SDS011;5585;52.530;7.320;2022-07-06T01:36:50;3.67;;;1.80;;
11064;SDS011;5585;52.530;7.320;2022-07-06T01:39:17;4.65;;;1.50;;
11064;SDS011;5585;52.530;7.320;2022-07-06T01:41:44;1.73;;;1.38;;
11064;SDS011;5585;52.530;7.320;2022-07-06T01:44:10;4.18;;;1.55;;
11064;SDS011;5585;52.530;7.320;2022-07-06T01:46:37;1.45;;;1.35;;
11064;SDS011;5585;52.530;7.320;2022-07-06T01:49:04;2.28;;;1.35;;
11064;SDS011;5585;52.530;7.320;2022-07-06T01:51:30;2.92;;;1.60;;
11064;SDS011;5585;52.530;7.320;2022-07-06T01:53:57;3.58;;;1.60;;
11064;SDS011;5585;52.530;7.320;2022-07-06T01:56:25;2.00;;;1.70;;
11064;SDS011;5585;52.530;7.320;2022-07-06T01:58:52;1.42;;;1.20;;
11064;SDS011;5585;52.530;7.320;2022-07-06T02:01:19;2.22;;;1.63;;
11064;SDS011;5585;52.530;7.320;2022-07-06T02:03:46;2.30;;;1.60;;
11064;SDS011;5585;52.530;7.320;2022-07-06T02:06:13;2.33;;;1.48;;
11064;SDS011;5585;52.530;7.320;2022-07-06T02:08:40;1.95;;;1.27;;
11064;SDS011;5585;52.530;7.320;2022-07-06T02:11:07;4.43;;;2.38;;
11064;SDS011;5585;52.530;7.320;2022-07-06T02:13:35;2.50;;;2.10;;
11064;SDS011;5585;52.530;7.320;2022-07-06T02:16:02;2.30;;;1.67;;
11064;SDS011;5585;52.530;7.320;2022-07-06T02:18:28;1.92;;;1.40;;
11064;SDS011;5585;52.530;7.320;2022-07-06T02:20:55;1.67;;;1.40;;
11064;SDS011;5585;52.530;7.320;2022-07-06T02:23:22;2.50;;;1.50;;
11064;SDS011;5585;52.530;7.320;2022-07-06T02:25:48;3.40;;;1.50;;
11064;SDS011;5585;52.530;7.320;2022-07-06T02:28:15;3.13;;;1.63;;
11064;SDS011;5585;52.530;7.320;2022-07-06T02:30:43;1.95;;;1.55;;
11064;SDS011;5585;52.530;7.320;2022-07-06T02:33:09;3.33;;;1.70;;
11064;SDS011;5585;52.530;7.320;2022-07-06T02:35:36;2.22;;;1.65;;
11064;SDS011;5585;52.530;7.320;2022-07-06T02:38:07;4.30;;;1.80;;
11064;SDS011;5585;52.530;7.320;2022-07-06T02:40:33;2.70;;;1.73;;
11064;SDS011;5585;52.530;7.320;2022-07-06T02:43:00;2.28;;;1.73;;
11064;SDS011;5585;52.530;7.320;2022-07-06T02:45:26;3.20;;;1.73;;
11064;SDS011;5585;52.530;7.320;2022-07-06T02:47:54;3.42;;;1.70;;
11064;SDS011;5585;52.530;7.320;2022-07-06T02:50:22;2.33;;;1.92;;
11064;SDS011;5585;52.530;7.320;2022-07-06T02:52:49;5.05;;;2.30;;
11064;SDS011;5585;52.530;7.320;2022-07-06T02:55:15;2.00;;;1.65;;
11064;SDS011;5585;52.530;7.320;2022-07-06T02:57:42;3.65;;;1.70;;
11064;SDS011;5585;52.530;7.320;2022-07-06T03:00:08;3.17;;;1.88;;
11064;SDS011;5585;52.530;7.320;2022-07-06T03:02:36;1.83;;;1.65;;
11064;SDS011;5585;52.530;7.320;2022-07-06T03:05:05;4.13;;;1.92;;
11064;SDS011;5585;52.530;7.320;2022-07-06T03:07:31;3.10;;;1.70;;
11064;SDS011;5585;52.530;7.320;2022-07-06T03:09:58;2.55;;;1.73;;
11064;SDS011;5585;52.530;7.320;2022-07-06T03:12:24;3.15;;;1.70;;
11064;SDS011;5585;52.530;7.320;2022-07-06T03:14:51;3.85;;;1.60;;
11064;SDS011;5585;52.530;7.320;2022-07-06T03:17:17;2.95;;;1.70;;
11064;SDS011;5585;52.530;7.320;2022-07-06T03:19:44;1.85;;;1.63;;
11064;SDS011;5585;52.530;7.320;2022-07-06T03:22:11;4.43;;;1.65;;
11064;SDS011;5585;52.530;7.320;2022-07-06T03:24:38;1.70;;;1.42;;
11064;SDS011;5585;52.530;7.320;2022-07-06T03:27:05;1.80;;;1.50;;
11064;SDS011;5585;52.530;7.320;2022-07-06T03:29:31;2.60;;;1.63;;
11064;SDS011;5585;52.530;7.320;2022-07-06T03:31:57;2.58;;;1.90;;
11064;SDS011;5585;52.530;7.320;2022-07-06T03:34:24;3.40;;;2.20;;
11064;SDS011;5585;52.530;7.320;2022-07-06T03:36:51;3.00;;;1.40;;
11064;SDS011;5585;52.530;7.320;2022-07-06T03:39:18;4.05;;;2.00;;
11064;SDS011;5585;52.530;7.320;2022-07-06T03:41:45;1.50;;;1.38;;
11064;SDS011;5585;52.530;7.320;2022-07-06T03:44:11;3.10;;;1.90;;
11064;SDS011;5585;52.530;7.320;2022-07-06T03:46:38;3.30;;;1.80;;
11064;SDS011;5585;52.530;7.320;2022-07-06T03:49:04;2.55;;;1.50;;
11064;SDS011;5585;52.530;7.320;2022-07-06T03:51:31;3.08;;;1.90;;
11064;SDS011;5585;52.530;7.320;2022-07-06T03:53:58;1.52;;;1.38;;
11064;SDS011;5585;52.530;7.320;2022-07-06T03:56:25;2.00;;;1.50;;
11064;SDS011;5585;52.530;7.320;2022-07-06T03:58:55;3.03;;;1.58;;
11064;SDS011;5585;52.530;7.320;2022-07-06T04:01:21;1.95;;;1.75;;
11064;SDS011;5585;52.530;7.320;2022-07-06T04:03:48;2.58;;;1.70;;
11064;SDS011;5585;52.530;7.320;2022-07-06T04:06:14;1.98;;;1.70;;
11064;SDS011;5585;52.530;7.320;2022-07-06T04:08:41;4.25;;;1.90;;
11064;SDS011;5585;52.530;7.320;2022-07-06T04:11:07;6.63;;;1.80;;
11064;SDS011;5585;52.530;7.320;2022-07-06T04:13:35;2.20;;;1.67;;
11064;SDS011;5585;52.530;7.320;2022-07-06T04:16:02;2.33;;;1.83;;
11064;SDS011;5585;52.530;7.320;2022-07-06T04:18:28;5.88;;;2.10;;
11064;SDS011;5585;52.530;7.320;2022-07-06T04:20:55;4.15;;;1.90;;
11064;SDS011;5585;52.530;7.320;2022-07-06T04:23:22;1.75;;;1.58;;
11064;SDS011;5585;52.530;7.320;2022-07-06T04:25:48;3.75;;;1.52;;
11064;SDS011;5585;52.530;7.320;2022-07-06T04:28:15;3.17;;;1.92;;
11064;SDS011;5585;52.530;7.320;2022-07-06T04:30:43;2.83;;;1.63;;
11064;SDS011;5585;52.530;7.320;2022-07-06T04:33:09;2.30;;;1.50;;
11064;SDS011;5585;52.530;7.320;2022-07-06T04:35:36;3.30;;;1.88;;
11064;SDS011;5585;52.530;7.320;2022-07-06T04:38:02;2.60;;;1.77;;
11064;SDS011;5585;52.530;7.320;2022-07-06T04:40:29;2.55;;;1.45;;
11064;SDS011;5585;52.530;7.320;2022-07-06T04:42:56;4.78;;;1.80;;
11064;SDS011;5585;52.530;7.320;2022-07-06T04:45:22;2.17;;;1.50;;
11064;SDS011;5585;52.530;7.320;2022-07-06T04:47:50;1.90;;;1.50;;
11064;SDS011;5585;52.530;7.320;2022-07-06T04:50:17;2.45;;;1.75;;
11064;SDS011;5585;52.530;7.320;2022-07-06T04:52:43;3.03;;;1.95;;
11064;SDS011;5585;52.530;7.320;2022-07-06T04:55:10;1.73;;;1.63;;
11064;SDS011;5585;52.530;7.320;2022-07-06T04:57:37;1.75;;;1.55;;
11064;SDS011;5585;52.530;7.320;2022-07-06T05:00:04;2.67;;;1.63;;
11064;SDS011;5585;52.530;7.320;2022-07-06T05:02:31;1.88;;;1.50;;
11064;SDS011;5585;52.530;7.320;2022-07-06T05:04:59;3.53;;;1.70;;
11064;SDS011;5585;52.530;7.320;2022-07-06T05:07:25;4.63;;;2.00;;
11064;SDS011;5585;52.530;7.320;2022-07-06T05:09:54;3.65;;;2.40;;
11064;SDS011;5585;52.530;7.320;2022-07-06T05:12:20;2.83;;;1.85;;
11064;SDS011;5585;52.530;7.320;2022-07-06T05:14:47;1.95;;;1.60;;
11064;SDS011;5585;52.530;7.320;2022-07-06T05:17:13;1.75;;;1.60;;
11064;SDS011;5585;52.530;7.320;2022-07-06T05:19:40;1.92;;;1.65;;
11064;SDS011;5585;52.530;7.320;2022-07-06T05:22:08;3.03;;;1.50;;
11064;SDS011;5585;52.530;7.320;2022-07-06T05:24:34;2.83;;;1.60;;
11064;SDS011;5585;52.530;7.320;2022-07-06T05:27:01;3.95;;;2.38;;
11064;SDS011;5585;52.530;7.320;2022-07-06T05:29:27;1.65;;;1.50;;
11064;SDS011;5585;52.530;7.320;2022-07-06T05:31:54;2.30;;;1.55;;
11064;SDS011;5585;52.530;7.320;2022-07-06T05:34:21;2.88;;;1.92;;
11064;SDS011;5585;52.530;7.320;2022-07-06T05:36:47;2.85;;;2.10;;
11064;SDS011;5585;52.530;7.320;2022-07-06T05:39:15;4.40;;;2.28;;
11064;SDS011;5585;52.530;7.320;2022-07-06T05:41:44;3.08;;;1.90;;
11064;SDS011;5585;52.530;7.320;2022-07-06T05:44:11;3.95;;;2.53;;
11064;SDS011;5585;52.530;7.320;2022-07-06T05:46:37;4.32;;;2.03;;
11064;SDS011;5585;52.530;7.320;2022-07-06T05:49:04;3.83;;;1.92;;
11064;SDS011;5585;52.530;7.320;2022-07-06T05:51:51;2.00;;;1.55;;
11064;SDS011;5585;52.530;7.320;2022-07-06T05:54:19;1.60;;;1.40;;
11064;SDS011;5585;52.530;7.320;2022-07-06T05:56:46;2.10;;;1.50;;
11064;SDS011;5585;52.530;7.320;2022-07-06T05:59:12;1.13;;;1.00;;
11064;SDS011;5585;52.530;7.320;2022-07-06T06:01:39;5.78;;;1.75;;
11064;SDS011;5585;52.530;7.320;2022-07-06T06:04:05;2.15;;;1.00;;
11064;SDS011;5585;52.530;7.320;2022-07-06T06:06:32;2.97;;;1.13;;
11064;SDS011;5585;52.530;7.320;2022-07-06T06:08:59;2.50;;;1.25;;
11064;SDS011;5585;52.530;7.320;2022-07-06T06:11:26;1.30;;;0.90;;
11064;SDS011;5585;52.530;7.320;2022-07-06T06:13:53;3.20;;;1.05;;
11064;SDS011;5585;52.530;7.320;2022-07-06T06:16:20;1.48;;;0.90;;
11064;SDS011;5585;52.530;7.320;2022-07-06T06:18:46;6.53;;;1.15;;
11064;SDS011;5585;52.530;7.320;2022-07-06T06:21:13;2.15;;;0.73;;
11064;SDS011;5585;52.530;7.320;2022-07-06T06:23:39;1.45;;;0.80;;
11064;SDS011;5585;52.530;7.320;2022-07-06T06:26:06;3.38;;;1.10;;
11064;SDS011;5585;52.530;7.320;2022-07-06T06:28:34;3.38;;;0.90;;
11064;SDS011;5585;52.530;7.320;2022-07-06T06:31:01;2.90;;;1.05;;
11064;SDS011;5585;52.530;7.320;2022-07-06T06:33:28;1.63;;;1.00;;
11064;SDS011;5585;52.530;7.320;2022-07-06T06:35:54;1.67;;;0.90;;
11064;SDS011;5585;52.530;7.320;2022-07-06T06:38:21;1.83;;;0.88;;
11064;SDS011;5585;52.530;7.320;2022-07-06T06:40:50;1.58;;;0.80;;
11064;SDS011;5585;52.530;7.320;2022-07-06T06:43:17;2.47;;;1.00;;
11064;SDS011;5585;52.530;7.320;2022-07-06T06:45:45;3.58;;;1.05;;
11064;SDS011;5585;52.530;7.320;2022-07-06T06:48:12;1.77;;;0.70;;
11064;SDS011;5585;52.530;7.320;2022-07-06T06:50:38;3.78;;;0.75;;
11064;SDS011;5585;52.530;7.320;2022-07-06T06:53:05;4.30;;;0.70;;
11064;SDS011;5585;52.530;7.320;2022-07-06T06:55:31;2.00;;;0.73;;
11064;SDS011;5585;52.530;7.320;2022-07-06T06:57:57;3.35;;;0.75;;
11064;SDS011;5585;52.530;7.320;2022-07-06T07:00:24;2.05;;;0.60;;
11064;SDS011;5585;52.530;7.320;2022-07-06T07:02:52;2.05;;;0.50;;
11064;SDS011;5585;52.530;7.320;2022-07-06T07:05:18;0.70;;;0.40;;
11064;SDS011;5585;52.530;7.320;2022-07-06T07:07:45;1.85;;;0.75;;
11064;SDS011;5585;52.530;7.320;2022-07-06T07:10:12;2.00;;;0.50;;
11064;SDS011;5585;52.530;7.320;2022-07-06T07:12:42;2.15;;;0.68;;
11064;SDS011;5585;52.530;7.320;2022-07-06T07:15:09;1.08;;;0.30;;
11064;SDS011;5585;52.530;7.320;2022-07-06T07:17:36;1.75;;;0.50;;
11064;SDS011;5585;52.530;7.320;2022-07-06T07:20:04;2.38;;;0.80;;
11064;SDS011;5585;52.530;7.320;2022-07-06T07:22:31;2.70;;;0.60;;
11064;SDS011;5585;52.530;7.320;2022-07-06T07:24:57;1.52;;;0.30;;
11064;SDS011;5585;52.530;7.320;2022-07-06T07:27:25;1.35;;;0.50;;
11064;SDS011;5585;52.530;7.320;2022-07-06T07:29:51;1.85;;;0.40;;
11064;SDS011;5585;52.530;7.320;2022-07-06T07:32:18;1.00;;;0.50;;
11064;SDS011;5585;52.530;7.320;2022-07-06T07:34:44;1.92;;;0.82;;
11064;SDS011;5585;52.530;7.320;2022-07-06T07:37:12;1.50;;;0.52;;
11064;SDS011;5585;52.530;7.320;2022-07-06T07:39:39;2.33;;;0.52;;
11064;SDS011;5585;52.530;7.320;2022-07-06T07:42:05;1.45;;;0.60;;
11064;SDS011;5585;52.530;7.320;2022-07-06T07:44:32;1.92;;;0.60;;
11064;SDS011;5585;52.530;7.320;2022-07-06T07:46:59;2.45;;;0.50;;
11064;SDS011;5585;52.530;7.320;2022-07-06T07:49:25;2.90;;;0.60;;
11064;SDS011;5585;52.530;7.320;2022-07-06T07:51:51;3.75;;;0.77;;
11064;SDS011;5585;52.530;7.320;2022-07-06T07:54:19;2.05;;;0.32;;
11064;SDS011;5585;52.530;7.320;2022-07-06T07:56:46;0.73;;;0.25;;
11064;SDS011;5585;52.530;7.320;2022-07-06T07:59:12;3.22;;;0.60;;
11064;SDS011;5585;52.530;7.320;2022-07-06T08:01:39;2.17;;;0.70;;
11064;SDS011;5585;52.530;7.320;2022-07-06T08:04:06;0.63;;;0.40;;
11064;SDS011;5585;52.530;7.320;2022-07-06T08:06:32;4.72;;;0.50;;
11064;SDS011;5585;52.530;7.320;2022-07-06T08:08:59;1.50;;;0.40;;
11064;SDS011;5585;52.530;7.320;2022-07-06T08:11:29;1.67;;;0.30;;
11064;SDS011;5585;52.530;7.320;2022-07-06T08:13:56;2.85;;;0.60;;
11064;SDS011;5585;52.530;7.320;2022-07-06T08:16:22;1.92;;;0.80;;
11064;SDS011;5585;52.530;7.320;2022-07-06T08:18:49;2.25;;;0.40;;
11064;SDS011;5585;52.530;7.320;2022-07-06T08:21:15;1.83;;;0.40;;
11064;SDS011;5585;52.530;7.320;2022-07-06T08:23:42;1.55;;;0.60;;
11064;SDS011;5585;52.530;7.320;2022-07-06T08:26:09;1.65;;;0.40;;
11064;SDS011;5585;52.530;7.320;2022-07-06T08:28:37;1.23;;;0.40;;
11064;SDS011;5585;52.530;7.320;2022-07-06T08:31:03;2.15;;;0.40;;
11064;SDS011;5585;52.530;7.320;2022-07-06T08:33:30;2.17;;;0.40;;
11064;SDS011;5585;52.530;7.320;2022-07-06T08:35:56;2.00;;;0.40;;
11064;SDS011;5585;52.530;7.320;2022-07-06T08:38:24;1.48;;;0.40;;
11064;SDS011;5585;52.530;7.320;2022-07-06T08:40:50;1.65;;;0.55;;
11064;SDS011;5585;52.530;7.320;2022-07-06T08:43:17;0.95;;;0.30;;
11064;SDS011;5585;52.530;7.320;2022-07-06T08:45:45;2.05;;;0.45;;
11064;SDS011;5585;52.530;7.320;2022-07-06T08:48:12;1.90;;;0.50;;
11064;SDS011;5585;52.530;7.320;2022-07-06T08:50:39;1.48;;;0.30;;
11064;SDS011;5585;52.530;7.320;2022-07-06T08:53:05;0.73;;;0.30;;
11064;SDS011;5585;52.530;7.320;2022-07-06T08:55:32;1.00;;;0.40;;
11064;SDS011;5585;52.530;7.320;2022-07-06T08:57:59;1.30;;;0.30;;
11064;SDS011;5585;52.530;7.320;2022-07-06T09:00:26;2.28;;;0.40;;
11064;SDS011;5585;52.530;7.320;2022-07-06T09:02:54;5.60;;;0.55;;
11064;SDS011;5585;52.530;7.320;2022-07-06T09:05:22;2.03;;;0.43;;
11064;SDS011;5585;52.530;7.320;2022-07-06T09:07:49;1.13;;;0.30;;
11064;SDS011;5585;52.530;7.320;2022-07-06T09:10:16;1.30;;;0.30;;
11064;SDS011;5585;52.530;7.320;2022-07-06T09:12:43;2.08;;;0.52;;
11064;SDS011;5585;52.530;7.320;2022-07-06T09:15:09;2.30;;;0.35;;
11064;SDS011;5585;52.530;7.320;2022-07-06T09:17:37;1.70;;;0.38;;
11064;SDS011;5585;52.530;7.320;2022-07-06T09:20:06;1.60;;;0.40;;
11064;SDS011;5585;52.530;7.320;2022-07-06T09:22:33;1.05;;;0.30;;
11064;SDS011;5585;52.530;7.320;2022-07-06T09:25:03;1.83;;;0.40;;
11064;SDS011;5585;52.530;7.320;2022-07-06T09:27:30;2.05;;;0.50;;
11064;SDS011;5585;52.530;7.320;2022-07-06T09:29:59;0.82;;;0.28;;
11064;SDS011;5585;52.530;7.320;2022-07-06T09:32:25;0.63;;;0.30;;
11064;SDS011;5585;52.530;7.320;2022-07-06T09:34:52;0.90;;;0.40;;
11064;SDS011;5585;52.530;7.320;2022-07-06T09:37:21;1.02;;;0.40;;
11064;SDS011;5585;52.530;7.320;2022-07-06T09:39:47;0.82;;;0.30;;
11064;SDS011;5585;52.530;7.320;2022-07-06T09:42:14;1.13;;;0.25;;
11064;SDS011;5585;52.530;7.320;2022-07-06T09:44:41;2.40;;;0.63;;
11064;SDS011;5585;52.530;7.320;2022-07-06T09:47:08;2.05;;;0.40;;
11064;SDS011;5585;52.530;7.320;2022-07-06T09:49:35;1.90;;;0.30;;
11064;SDS011;5585;52.530;7.320;2022-07-06T09:52:02;1.52;;;0.40;;
11064;SDS011;5585;52.530;7.320;2022-07-06T09:54:30;2.63;;;0.68;;
11064;SDS011;5585;52.530;7.320;2022-07-06T09:56:58;1.48;;;0.40;;
11064;SDS011;5585;52.530;7.320;2022-07-06T09:59:25;1.80;;;0.40;;
11064;SDS011;5585;52.530;7.320;2022-07-06T10:01:53;1.17;;;0.30;;
11064;SDS011;5585;52.530;7.320;2022-07-06T10:04:20;2.38;;;0.52;;
11064;SDS011;5585;52.530;7.320;2022-07-06T10:06:47;1.15;;;0.30;;
11064;SDS011;5585;52.530;7.320;2022-07-06T10:09:14;1.88;;;0.45;;
11064;SDS011;5585;52.530;7.320;2022-07-06T10:11:42;3.63;;;0.50;;
11064;SDS011;5585;52.530;7.320;2022-07-06T10:14:10;2.08;;;0.45;;
11064;SDS011;5585;52.530;7.320;2022-07-06T10:16:39;0.73;;;0.40;;
11064;SDS011;5585;52.530;7.320;2022-07-06T10:19:06;1.38;;;0.40;;
11064;SDS011;5585;52.530;7.320;2022-07-06T10:21:33;2.00;;;1.23;;
11064;SDS011;5585;52.530;7.320;2022-07-06T10:24:01;2.58;;;0.52;;
11064;SDS011;5585;52.530;7.320;2022-07-06T10:26:27;0.57;;;0.25;;
11064;SDS011;5585;52.530;7.320;2022-07-06T10:28:56;1.13;;;0.30;;
11064;SDS011;5585;52.530;7.320;2022-07-06T10:31:24;2.75;;;0.43;;
11064;SDS011;5585;52.530;7.320;2022-07-06T10:33:51;2.15;;;0.47;;
11064;SDS011;5585;52.530;7.320;2022-07-06T10:36:18;3.85;;;0.40;;
11064;SDS011;5585;52.530;7.320;2022-07-06T10:38:46;0.80;;;0.28;;
11064;SDS011;5585;52.530;7.320;2022-07-06T10:41:14;2.30;;;0.30;;
11064;SDS011;5585;52.530;7.320;2022-07-06T10:43:42;1.35;;;0.38;;
11064;SDS011;5585;52.530;7.320;2022-07-06T10:46:10;1.20;;;0.30;;
11064;SDS011;5585;52.530;7.320;2022-07-06T10:48:37;2.20;;;0.50;;
11064;SDS011;5585;52.530;7.320;2022-07-06T10:51:04;2.85;;;0.35;;
11064;SDS011;5585;52.530;7.320;2022-07-06T10:53:32;3.45;;;0.40;;
11064;SDS011;5585;52.530;7.320;2022-07-06T10:56:00;1.88;;;0.63;;
11064;SDS011;5585;52.530;7.320;2022-07-06T11:01:22;1.55;;;0.40;;
11064;SDS011;5585;52.530;7.320;2022-07-06T11:03:49;0.28;;;0.20;;
11064;SDS011;5585;52.530;7.320;2022-07-06T11:06:16;0.77;;;0.25;;
11064;SDS011;5585;52.530;7.320;2022-07-06T11:08:46;1.48;;;0.28;;
11064;SDS011;5585;52.530;7.320;2022-07-06T11:11:14;2.42;;;0.50;;
11064;SDS011;5585;52.530;7.320;2022-07-06T11:13:51;2.20;;;0.55;;
11064;SDS011;5585;52.530;7.320;2022-07-06T11:16:18;1.70;;;0.47;;
11064;SDS011;5585;52.530;7.320;2022-07-06T11:18:48;1.85;;;0.40;;
11064;SDS011;5585;52.530;7.320;2022-07-06T11:21:15;0.63;;;0.20;;
11064;SDS011;5585;52.530;7.320;2022-07-06T11:23:42;1.85;;;0.30;;
11064;SDS011;5585;52.530;7.320;2022-07-06T11:26:09;2.22;;;0.30;;
11064;SDS011;5585;52.530;7.320;2022-07-06T11:28:36;0.73;;;0.40;;
11064;SDS011;5585;52.530;7.320;2022-07-06T11:31:03;1.40;;;0.40;;
11064;SDS011;5585;52.530;7.320;2022-07-06T11:33:30;1.05;;;0.40;;
11064;SDS011;5585;52.530;7.320;2022-07-06T11:38:39;1.02;;;0.30;;
11064;SDS011;5585;52.530;7.320;2022-07-06T11:41:06;1.88;;;0.40;;
11064;SDS011;5585;52.530;7.320;2022-07-06T11:43:33;1.98;;;0.35;;
11064;SDS011;5585;52.530;7.320;2022-07-06T11:45:59;1.98;;;0.45;;
11064;SDS011;5585;52.530;7.320;2022-07-06T11:48:26;1.10;;;0.40;;
11064;SDS011;5585;52.530;7.320;2022-07-06T11:50:59;1.55;;;0.43;;
11064;SDS011;5585;52.530;7.320;2022-07-06T11:53:25;1.80;;;0.32;;
11064;SDS011;5585;52.530;7.320;2022-07-06T11:55:53;0.52;;;0.20;;
11064;SDS011;5585;52.530;7.320;2022-07-06T11:58:21;0.80;;;0.30;;
11064;SDS011;5585;52.530;7.320;2022-07-06T12:03:29;2.95;;;0.30;;
11064;SDS011;5585;52.530;7.320;2022-07-06T12:05:57;2.10;;;0.30;;
11064;SDS011;5585;52.530;7.320;2022-07-06T12:08:24;1.00;;;0.30;;
11064;SDS011;5585;52.530;7.320;2022-07-06T12:10:50;0.68;;;0.20;;
11064;SDS011;5585;52.530;7.320;2022-07-06T12:13:19;1.08;;;0.30;;
11064;SDS011;5585;52.530;7.320;2022-07-06T12:15:47;1.25;;;0.20;;
11064;SDS011;5585;52.530;7.320;2022-07-06T12:18:13;1.35;;;0.30;;
11064;SDS011;5585;52.530;7.320;2022-07-06T12:20:40;2.22;;;0.32;;
11064;SDS011;5585;52.530;7.320;2022-07-06T12:23:06;2.58;;;0.93;;
11064;SDS011;5585;52.530;7.320;2022-07-06T12:25:33;1.42;;;0.52;;
11064;SDS011;5585;52.530;7.320;2022-07-06T12:28:00;1.67;;;0.20;;
11064;SDS011;5585;52.530;7.320;2022-07-06T12:30:28;0.90;;;0.30;;
11064;SDS011;5585;52.530;7.320;2022-07-06T12:33:13;1.08;;;0.10;;
11064;SDS011;5585;52.530;7.320;2022-07-06T12:35:40;1.73;;;0.40;;
11064;SDS011;5585;52.530;7.320;2022-07-06T12:38:07;1.65;;;0.25;;
11064;SDS011;5585;52.530;7.320;2022-07-06T12:40:35;1.17;;;0.30;;
11064;SDS011;5585;52.530;7.320;2022-07-06T12:43:02;1.38;;;0.20;;
11064;SDS011;5585;52.530;7.320;2022-07-06T12:45:30;2.22;;;0.45;;
11064;SDS011;5585;52.530;7.320;2022-07-06T12:47:57;0.77;;;0.20;;
11064;SDS011;5585;52.530;7.320;2022-07-06T12:50:30;1.75;;;0.38;;
11064;SDS011;5585;52.530;7.320;2022-07-06T12:52:57;1.45;;;0.28;;
11064;SDS011;5585;52.530;7.320;2022-07-06T12:55:25;1.13;;;0.30;;
11064;SDS011;5585;52.530;7.320;2022-07-06T12:57:52;1.35;;;0.40;;
11064;SDS011;5585;52.530;7.320;2022-07-06T13:00:18;1.88;;;0.52;;
11064;SDS011;5585;52.530;7.320;2022-07-06T13:02:48;0.77;;;0.38;;
11064;SDS011;5585;52.530;7.320;2022-07-06T13:05:21;1.15;;;0.30;;
11064;SDS011;5585;52.530;7.320;2022-07-06T13:07:52;1.58;;;0.32;;
11064;SDS011;5585;52.530;7.320;2022-07-06T13:10:19;1.80;;;0.55;;
11064;SDS011;5585;52.530;7.320;2022-07-06T13:12:46;1.65;;;0.20;;
11064;SDS011;5585;52.530;7.320;2022-07-06T13:15:12;1.17;;;0.50;;
11064;SDS011;5585;52.530;7.320;2022-07-06T13:17:39;0.50;;;0.22;;
11064;SDS011;5585;52.530;7.320;2022-07-06T13:20:08;0.90;;;0.28;;
11064;SDS011;5585;52.530;7.320;2022-07-06T13:22:35;0.85;;;0.20;;
11064;SDS011;5585;52.530;7.320;2022-07-06T13:25:01;0.55;;;0.22;;
11064;SDS011;5585;52.530;7.320;2022-07-06T13:27:28;1.85;;;0.30;;
11064;SDS011;5585;52.530;7.320;2022-07-06T13:29:55;3.17;;;0.60;;
11064;SDS011;5585;52.530;7.320;2022-07-06T13:32:21;0.95;;;0.30;;
11064;SDS011;5585;52.530;7.320;2022-07-06T13:34:48;1.02;;;0.30;;
11064;SDS011;5585;52.530;7.320;2022-07-06T13:37:16;1.58;;;0.50;;
11064;SDS011;5585;52.530;7.320;2022-07-06T13:39:42;1.77;;;0.45;;
11064;SDS011;5585;52.530;7.320;2022-07-06T13:42:08;1.55;;;0.50;;
11064;SDS011;5585;52.530;7.320;2022-07-06T13:44:35;2.15;;;0.55;;
11064;SDS011;5585;52.530;7.320;2022-07-06T13:47:01;2.55;;;0.38;;
11064;SDS011;5585;52.530;7.320;2022-07-06T13:49:28;0.93;;;0.30;;
11064;SDS011;5585;52.530;7.320;2022-07-06T13:51:54;2.22;;;0.50;;
11064;SDS011;5585;52.530;7.320;2022-07-06T13:54:28;1.58;;;0.20;;
11064;SDS011;5585;52.530;7.320;2022-07-06T13:56:55;0.93;;;0.30;;
11064;SDS011;5585;52.530;7.320;2022-07-06T13:59:21;1.30;;;0.30;;
11064;SDS011;5585;52.530;7.320;2022-07-06T14:01:48;1.08;;;0.40;;
11064;SDS011;5585;52.530;7.320;2022-07-06T14:04:14;1.20;;;0.43;;
11064;SDS011;5585;52.530;7.320;2022-07-06T14:06:41;3.17;;;0.47;;
11064;SDS011;5585;52.530;7.320;2022-07-06T14:09:07;0.88;;;0.30;;
11064;SDS011;5585;52.530;7.320;2022-07-06T14:11:35;1.17;;;0.40;;
11064;SDS011;5585;52.530;7.320;2022-07-06T14:14:02;2.67;;;0.60;;
11064;SDS011;5585;52.530;7.320;2022-07-06T14:16:31;4.88;;;0.77;;
11064;SDS011;5585;52.530;7.320;2022-07-06T14:18:59;1.65;;;0.57;;
11064;SDS011;5585;52.530;7.320;2022-07-06T14:21:25;1.77;;;0.50;;
11064;SDS011;5585;52.530;7.320;2022-07-06T14:23:52;2.47;;;0.82;;
11064;SDS011;5585;52.530;7.320;2022-07-06T14:26:18;1.30;;;0.40;;
11064;SDS011;5585;52.530;7.320;2022-07-06T14:28:46;2.38;;;0.40;;
11064;SDS011;5585;52.530;7.320;2022-07-06T14:31:13;1.33;;;0.40;;
11064;SDS011;5585;52.530;7.320;2022-07-06T14:33:39;2.42;;;0.40;;
11064;SDS011;5585;52.530;7.320;2022-07-06T14:36:06;1.20;;;0.50;;
11064;SDS011;5585;52.530;7.320;2022-07-06T14:38:32;1.60;;;0.43;;
11064;SDS011;5585;52.530;7.320;2022-07-06T14:40:59;2.60;;;0.50;;
11064;SDS011;5585;52.530;7.320;2022-07-06T14:43:25;4.15;;;0.65;;
11064;SDS011;5585;52.530;7.320;2022-07-06T14:45:53;1.33;;;0.50;;
11064;SDS011;5585;52.530;7.320;2022-07-06T14:48:20;1.13;;;0.30;;
11064;SDS011;5585;52.530;7.320;2022-07-06T14:50:46;1.13;;;0.40;;
11064;SDS011;5585;52.530;7.320;2022-07-06T14:53:13;1.05;;;0.40;;
11064;SDS011;5585;52.530;7.320;2022-07-06T14:55:39;2.08;;;0.40;;
11064;SDS011;5585;52.530;7.320;2022-07-06T14:58:06;1.42;;;0.50;;
11064;SDS011;5585;52.530;7.320;2022-07-06T15:00:32;1.40;;;0.50;;
11064;SDS011;5585;52.530;7.320;2022-07-06T15:03:00;1.38;;;0.45;;
11064;SDS011;5585;52.530;7.320;2022-07-06T15:05:27;0.22;;;0.17;;
11064;SDS011;5585;52.530;7.320;2022-07-06T15:07:53;2.03;;;0.45;;